createdAt,value
2022-11-17T00:00:35.568Z,12.30
2022-11-17T00:01:37.282Z,12.30
2022-11-17T00:02:39.310Z,12.30
2022-11-17T00:03:43.770Z,12.30
2022-11-17T00:04:48.383Z,12.30
2022-11-17T00:05:53.831Z,12.30
2022-11-17T00:06:56.514Z,12.30
2022-11-17T00:07:58.285Z,12.30
2022-11-17T00:09:00.235Z,12.20
2022-11-17T00:10:02.359Z,12.20
2022-11-17T00:11:04.756Z,12.10
2022-11-17T00:12:29.812Z,12.10
2022-11-17T00:13:53.492Z,12.10
2022-11-17T00:14:55.625Z,12.00
2022-11-17T00:15:57.542Z,12.00
2022-11-17T00:17:04.743Z,12.00
2022-11-17T00:18:30.153Z,12.00
2022-11-17T00:19:50.581Z,12.10
2022-11-17T00:21:13.487Z,12.00
2022-11-17T00:22:17.126Z,12.00
2022-11-17T00:23:19.199Z,12.10
2022-11-17T00:24:23.326Z,12.10
2022-11-17T00:25:26.667Z,12.10
2022-11-17T00:26:29.622Z,12.10
2022-11-17T00:27:32.582Z,12.10
2022-11-17T00:28:34.699Z,12.10
2022-11-17T00:29:39.275Z,12.10
2022-11-17T00:31:00.447Z,12.10
2022-11-17T00:32:21.239Z,12.10
2022-11-17T00:33:43.263Z,12.10
2022-11-17T00:34:46.123Z,12.10
2022-11-17T00:35:55.147Z,12.10
2022-11-17T00:36:57.606Z,12.10
2022-11-17T00:38:17.503Z,11.80
2022-11-17T00:39:23.480Z,12.10
2022-11-17T00:40:25.751Z,12.10
2022-11-17T00:41:28.832Z,12.10
2022-11-17T00:42:30.563Z,12.10
2022-11-17T00:43:32.725Z,12.20
2022-11-17T00:44:35.003Z,12.20
2022-11-17T00:45:36.944Z,12.20
2022-11-17T00:46:41.505Z,12.20
2022-11-17T00:47:43.518Z,12.20
2022-11-17T00:48:45.359Z,12.20
2022-11-17T00:49:47.356Z,12.30
2022-11-17T00:50:49.142Z,12.30
2022-11-17T00:51:52.180Z,12.30
2022-11-17T00:52:54.230Z,12.30
2022-11-17T00:53:56.190Z,12.30
2022-11-17T00:54:57.929Z,12.30
2022-11-17T00:55:59.977Z,12.40
2022-11-17T00:57:02.229Z,12.30
2022-11-17T00:58:05.026Z,12.30
2022-11-17T00:59:08.644Z,12.40
2022-11-17T01:00:11.954Z,12.30
2022-11-17T01:01:13.806Z,12.30
2022-11-17T01:02:15.685Z,12.30
2022-11-17T01:03:17.483Z,12.40
2022-11-17T01:04:20.559Z,12.40
2022-11-17T01:05:42.191Z,12.40
2022-11-17T01:06:48.415Z,12.30
2022-11-17T01:07:50.168Z,12.40
2022-11-17T01:08:51.902Z,12.40
2022-11-17T01:09:53.652Z,12.40
2022-11-17T01:10:55.585Z,12.40
2022-11-17T01:11:57.366Z,12.30
2022-11-17T01:12:59.404Z,12.30
2022-11-17T01:14:01.407Z,12.30
2022-11-17T01:15:03.765Z,12.30
2022-11-17T01:16:11.455Z,12.30
2022-11-17T01:17:15.332Z,12.30
2022-11-17T01:18:17.086Z,12.20
2022-11-17T01:19:19.319Z,12.20
2022-11-17T01:20:28.390Z,12.20
2022-11-17T01:21:31.740Z,12.20
2022-11-17T01:22:33.483Z,12.20
2022-11-17T01:23:37.082Z,12.20
2022-11-17T01:24:38.951Z,12.20
2022-11-17T01:25:40.986Z,12.20
2022-11-17T01:26:44.193Z,12.20
2022-11-17T01:27:47.570Z,12.20
2022-11-17T01:28:50.273Z,12.20
2022-11-17T01:29:52.051Z,12.20
2022-11-17T01:31:00.630Z,12.30
2022-11-17T01:32:02.416Z,12.30
2022-11-17T01:33:05.424Z,12.40
2022-11-17T01:34:07.852Z,12.30
2022-11-17T01:35:12.221Z,12.30
2022-11-17T01:36:22.880Z,12.30
2022-11-17T01:37:24.744Z,12.30
2022-11-17T01:38:26.496Z,12.30
2022-11-17T01:39:31.104Z,12.30
2022-11-17T01:40:33.068Z,12.30
2022-11-17T01:41:34.911Z,12.30
2022-11-17T01:42:36.629Z,12.30
2022-11-17T01:44:04.596Z,12.40
2022-11-17T01:45:22.784Z,12.40
2022-11-17T01:46:41.461Z,12.40
2022-11-17T01:47:58.643Z,12.40
2022-11-17T01:49:12.991Z,12.40
2022-11-17T01:50:39.305Z,12.40
2022-11-17T01:51:46.213Z,12.40
2022-11-17T01:52:50.486Z,12.40
2022-11-17T01:53:52.498Z,12.40
2022-11-17T01:54:56.998Z,12.50
2022-11-17T01:56:09.307Z,12.40
2022-11-17T01:57:17.926Z,12.40
2022-11-17T01:58:34.906Z,12.40
2022-11-17T01:59:51.957Z,12.40
2022-11-17T02:00:55.548Z,12.30
2022-11-17T02:01:57.929Z,12.30
2022-11-17T02:03:00.580Z,12.20
2022-11-17T02:04:02.643Z,12.20
2022-11-17T02:05:13.767Z,12.20
2022-11-17T02:06:30.320Z,12.20
2022-11-17T02:07:36.610Z,12.20
2022-11-17T02:08:41.480Z,12.30
2022-11-17T02:09:44.352Z,12.30
2022-11-17T02:10:51.666Z,12.30
2022-11-17T02:14:10.120Z,12.30
2022-11-17T02:15:11.873Z,12.30
2022-11-17T02:16:14.998Z,12.30
2022-11-17T02:17:18.431Z,12.30
2022-11-17T02:18:20.676Z,12.30
2022-11-17T02:19:26.161Z,12.30
2022-11-17T02:20:41.447Z,12.30
2022-11-17T02:22:05.165Z,12.30
2022-11-17T02:23:37.794Z,12.30
2022-11-17T02:24:54.374Z,12.30
2022-11-17T02:26:41.881Z,12.30
2022-11-17T02:27:55.618Z,12.30
2022-11-17T02:29:12.965Z,12.20
2022-11-17T02:30:18.600Z,12.20
2022-11-17T02:31:30.923Z,12.20
2022-11-17T02:32:54.436Z,12.20
2022-11-17T02:34:15.894Z,12.10
2022-11-17T02:35:28.729Z,12.10
2022-11-17T02:36:44.132Z,12.10
2022-11-17T02:37:51.676Z,12.10
2022-11-17T02:39:13.566Z,12.10
2022-11-17T02:40:22.342Z,12.10
2022-11-17T02:41:47.333Z,12.10
2022-11-17T02:43:14.108Z,12.00
2022-11-17T02:44:54.617Z,12.00
2022-11-17T02:46:24.858Z,12.00
2022-11-17T02:47:30.405Z,12.00
2022-11-17T02:48:51.952Z,12.00
2022-11-17T02:50:06.545Z,12.00
2022-11-17T02:51:18.364Z,12.00
2022-11-17T02:52:21.475Z,11.90
2022-11-17T02:53:28.764Z,11.90
2022-11-17T02:54:32.771Z,11.90
2022-11-17T02:55:35.946Z,11.90
2022-11-17T02:56:45.145Z,11.80
2022-11-17T02:57:47.452Z,11.80
2022-11-17T02:58:53.078Z,11.80
2022-11-17T02:59:55.497Z,11.80
2022-11-17T03:01:28.020Z,11.90
2022-11-17T03:03:11.166Z,11.90
2022-11-17T03:04:15.794Z,11.90
2022-11-17T03:05:27.600Z,11.90
2022-11-17T03:07:15.488Z,11.90
2022-11-17T03:08:39.794Z,11.80
2022-11-17T03:10:00.866Z,11.80
2022-11-17T03:11:06.061Z,11.80
2022-11-17T03:12:18.954Z,11.80
2022-11-17T03:13:44.245Z,11.80
2022-11-17T03:15:12.511Z,11.80
2022-11-17T03:16:25.614Z,11.90
2022-11-17T03:17:54.161Z,11.90
2022-11-17T03:19:15.947Z,11.90
2022-11-17T03:20:27.799Z,12.00
2022-11-17T03:21:37.856Z,12.00
2022-11-17T03:22:50.631Z,12.00
2022-11-17T03:23:55.195Z,12.00
2022-11-17T03:25:01.537Z,12.10
2022-11-17T03:26:09.401Z,12.10
2022-11-17T03:27:25.252Z,12.10
2022-11-17T03:28:29.855Z,12.20
2022-11-17T03:29:34.517Z,12.20
2022-11-17T03:30:40.331Z,12.30
2022-11-17T03:31:45.619Z,12.20
2022-11-17T03:32:53.413Z,12.30
2022-11-17T03:33:58.135Z,12.30
2022-11-17T03:35:06.366Z,12.30
2022-11-17T03:36:13.743Z,12.30
2022-11-17T03:37:19.851Z,12.40
2022-11-17T03:38:28.114Z,12.40
2022-11-17T03:39:33.469Z,12.40
2022-11-17T03:40:37.359Z,12.40
2022-11-17T03:41:45.501Z,12.40
2022-11-17T03:42:53.205Z,12.40
2022-11-17T03:43:57.884Z,12.30
2022-11-17T03:45:22.420Z,12.30
2022-11-17T03:46:25.920Z,12.30
2022-11-17T03:47:31.111Z,12.50
2022-11-17T03:48:43.251Z,12.30
2022-11-17T03:50:13.883Z,12.30
2022-11-17T03:51:21.040Z,12.30
2022-11-17T03:52:25.611Z,12.30
2022-11-17T03:53:27.480Z,12.40
2022-11-17T03:54:29.501Z,12.40
2022-11-17T03:55:43.852Z,12.40
2022-11-17T03:56:57.656Z,12.40
2022-11-17T03:58:09.982Z,12.40
2022-11-17T03:59:22.669Z,12.40
2022-11-17T04:00:25.561Z,12.40
2022-11-17T04:01:29.496Z,12.40
2022-11-17T04:02:31.763Z,12.40
2022-11-17T04:03:34.884Z,12.40
2022-11-17T04:04:57.369Z,12.40
2022-11-17T04:05:59.504Z,12.40
2022-11-17T04:07:01.499Z,12.40
2022-11-17T04:08:04.959Z,12.40
2022-11-17T04:09:06.865Z,12.40
2022-11-17T04:10:14.484Z,12.40
2022-11-17T04:11:34.861Z,12.40
2022-11-17T04:12:55.659Z,12.40
2022-11-17T04:14:16.483Z,12.40
2022-11-17T04:15:36.822Z,12.40
2022-11-17T04:16:38.917Z,12.40
2022-11-17T04:17:41.105Z,12.40
2022-11-17T04:18:42.956Z,12.40
2022-11-17T04:19:44.720Z,12.40
2022-11-17T04:20:51.355Z,12.40
2022-11-17T04:21:53.150Z,12.40
2022-11-17T04:23:07.935Z,12.60
2022-11-17T04:24:09.847Z,12.40
2022-11-17T04:25:32.946Z,12.60
2022-11-17T04:26:53.089Z,12.40
2022-11-17T04:28:13.677Z,12.40
2022-11-17T04:29:15.617Z,12.40
2022-11-17T04:30:17.434Z,12.50
2022-11-17T04:31:27.352Z,12.50
2022-11-17T04:32:29.247Z,12.40
2022-11-17T04:33:31.179Z,12.40
2022-11-17T04:34:34.434Z,12.40
2022-11-17T04:35:36.484Z,12.40
2022-11-17T04:36:47.190Z,12.40
2022-11-17T04:37:48.988Z,12.40
2022-11-17T04:38:53.701Z,12.40
2022-11-17T04:39:55.608Z,12.40
2022-11-17T04:41:27.619Z,12.40
2022-11-17T04:42:29.488Z,12.50
2022-11-17T04:43:32.044Z,12.50
2022-11-17T04:44:35.905Z,12.50
2022-11-17T04:45:37.969Z,12.50
2022-11-17T04:46:41.157Z,12.50
2022-11-17T04:47:42.927Z,12.50
2022-11-17T04:48:46.738Z,12.60
2022-11-17T04:49:48.491Z,12.60
2022-11-17T04:50:57.339Z,12.60
2022-11-17T04:51:59.274Z,12.60
2022-11-17T04:53:01.419Z,12.60
2022-11-17T04:54:04.633Z,12.60
2022-11-17T04:55:06.857Z,12.60
2022-11-17T04:56:09.736Z,12.70
2022-11-17T04:57:11.623Z,12.70
2022-11-17T04:58:13.733Z,12.60
2022-11-17T04:59:17.513Z,12.70
2022-11-17T05:00:19.640Z,12.70
2022-11-17T05:01:25.189Z,12.70
2022-11-17T05:02:27.706Z,12.70
2022-11-17T05:03:29.675Z,12.70
2022-11-17T05:04:50.253Z,12.70
2022-11-17T05:05:52.062Z,12.70
2022-11-17T05:07:12.883Z,12.70
2022-11-17T05:08:17.875Z,12.70
2022-11-17T05:09:19.687Z,12.70
2022-11-17T05:10:43.079Z,12.70
2022-11-17T05:12:03.547Z,12.70
2022-11-17T05:13:25.367Z,12.70
2022-11-17T05:14:29.936Z,12.70
2022-11-17T05:16:10.399Z,12.70
2022-11-17T05:17:16.599Z,12.60
2022-11-17T05:18:18.869Z,12.60
2022-11-17T05:19:23.784Z,12.60
2022-11-17T05:20:25.930Z,12.60
2022-11-17T05:21:27.876Z,12.60
2022-11-17T05:22:48.344Z,12.70
2022-11-17T05:23:57.490Z,12.60
2022-11-17T05:25:00.748Z,12.60
2022-11-17T05:26:02.677Z,12.60
2022-11-17T05:27:05.885Z,12.60
2022-11-17T05:28:15.217Z,12.60
2022-11-17T05:29:20.029Z,12.60
2022-11-17T05:30:21.772Z,12.70
2022-11-17T05:31:25.301Z,12.70
2022-11-17T05:32:27.147Z,12.70
2022-11-17T05:33:33.543Z,12.70
2022-11-17T05:34:38.250Z,12.70
2022-11-17T05:35:40.264Z,12.70
2022-11-17T05:36:42.364Z,12.70
2022-11-17T05:37:44.350Z,12.70
2022-11-17T05:38:48.355Z,12.70
2022-11-17T05:39:58.417Z,12.70
2022-11-17T05:41:03.631Z,12.70
2022-11-17T05:42:06.059Z,12.70
2022-11-17T05:43:08.117Z,12.70
2022-11-17T05:44:10.004Z,12.70
2022-11-17T05:45:11.866Z,12.70
2022-11-17T05:46:14.125Z,12.70
2022-11-17T05:47:17.042Z,12.70
2022-11-17T05:48:18.999Z,12.70
2022-11-17T05:49:20.876Z,12.70
2022-11-17T05:50:22.845Z,12.70
2022-11-17T05:51:24.919Z,12.80
2022-11-17T05:52:26.718Z,12.70
2022-11-17T05:53:29.762Z,12.70
2022-11-17T05:54:31.668Z,12.90
2022-11-17T05:55:33.637Z,12.70
2022-11-17T05:56:55.877Z,12.70
2022-11-17T05:58:02.573Z,12.70
2022-11-17T05:59:16.115Z,12.70
2022-11-17T06:00:19.500Z,12.80
2022-11-17T06:01:25.777Z,12.80
2022-11-17T06:02:40.134Z,12.80
2022-11-17T06:03:47.403Z,12.80
2022-11-17T06:05:02.361Z,12.80
2022-11-17T06:06:04.610Z,12.80
2022-11-17T06:07:07.384Z,12.80
2022-11-17T06:08:10.043Z,12.80
2022-11-17T06:09:12.188Z,12.80
2022-11-17T06:10:13.864Z,12.80
2022-11-17T06:11:16.918Z,12.80
2022-11-17T06:12:19.151Z,12.80
2022-11-17T06:13:26.252Z,12.80
2022-11-17T06:14:28.179Z,12.80
2022-11-17T06:15:30.405Z,12.80
2022-11-17T06:16:35.633Z,12.80
2022-11-17T06:17:54.899Z,12.80
2022-11-17T06:19:27.717Z,12.80
2022-11-17T06:20:38.470Z,12.80
2022-11-17T06:22:10.171Z,12.80
2022-11-17T06:23:08.373Z,12.80
2022-11-17T06:24:10.665Z,12.70
2022-11-17T06:25:12.663Z,12.70
2022-11-17T06:26:15.545Z,12.70
2022-11-17T06:27:17.810Z,12.70
2022-11-17T06:28:22.108Z,12.70
2022-11-17T06:29:24.110Z,12.70
2022-11-17T06:30:26.444Z,12.70
2022-11-17T06:31:28.665Z,12.70
2022-11-17T06:32:31.914Z,12.70
2022-11-17T06:33:36.229Z,12.80
2022-11-17T06:34:38.347Z,12.80
2022-11-17T06:35:43.039Z,12.80
2022-11-17T06:36:44.935Z,12.80
2022-11-17T06:37:47.459Z,12.80
2022-11-17T06:38:49.886Z,12.80
2022-11-17T06:39:51.977Z,12.80
2022-11-17T06:40:53.876Z,12.80
2022-11-17T06:41:55.674Z,12.80
2022-11-17T06:43:12.551Z,12.80
2022-11-17T06:44:14.629Z,12.80
2022-11-17T06:45:16.693Z,12.90
2022-11-17T06:46:22.770Z,12.90
2022-11-17T06:47:24.577Z,12.90
2022-11-17T06:48:28.909Z,12.90
2022-11-17T06:49:30.666Z,12.90
2022-11-17T06:50:33.229Z,12.90
2022-11-17T06:51:40.922Z,13.10
2022-11-17T06:52:45.719Z,12.90
2022-11-17T06:53:49.721Z,12.80
2022-11-17T06:54:51.638Z,12.80
2022-11-17T06:56:02.548Z,12.90
2022-11-17T06:57:04.411Z,12.90
2022-11-17T06:58:08.728Z,12.90
2022-11-17T06:59:10.599Z,13.00
2022-11-17T07:00:13.118Z,13.10
2022-11-17T07:01:16.179Z,12.90
2022-11-17T07:02:18.318Z,12.90
2022-11-17T07:03:22.583Z,13.00
2022-11-17T07:04:42.705Z,13.00
2022-11-17T07:05:44.559Z,13.00
2022-11-17T07:06:46.295Z,13.00
2022-11-17T07:07:48.059Z,13.00
2022-11-17T07:08:53.262Z,13.00
2022-11-17T07:09:54.962Z,13.00
2022-11-17T07:11:05.453Z,13.00
2022-11-17T07:12:07.378Z,13.10
2022-11-17T07:13:10.562Z,13.10
2022-11-17T07:14:12.727Z,13.30
2022-11-17T07:15:15.124Z,13.10
2022-11-17T07:16:23.457Z,13.10
2022-11-17T07:17:25.883Z,13.10
2022-11-17T07:18:27.640Z,13.10
2022-11-17T07:19:29.469Z,13.10
2022-11-17T07:20:31.658Z,13.10
2022-11-17T07:21:33.734Z,13.10
2022-11-17T07:22:35.520Z,13.10
2022-11-17T07:23:38.963Z,13.10
2022-11-17T07:24:41.141Z,13.10
2022-11-17T07:25:43.295Z,13.10
2022-11-17T07:26:45.702Z,13.10
2022-11-17T07:27:47.653Z,13.10
2022-11-17T07:28:49.421Z,13.10
2022-11-17T07:29:51.253Z,13.10
2022-11-17T07:30:53.391Z,13.10
2022-11-17T07:31:55.461Z,13.10
2022-11-17T07:33:01.098Z,13.10
2022-11-17T07:34:04.252Z,13.10
2022-11-17T07:35:06.510Z,13.00
2022-11-17T07:36:12.095Z,13.10
2022-11-17T07:37:14.104Z,13.10
2022-11-17T07:38:15.945Z,13.10
2022-11-17T07:39:21.476Z,13.10
2022-11-17T07:40:23.792Z,13.10
2022-11-17T07:41:25.658Z,13.10
2022-11-17T07:42:27.866Z,13.10
2022-11-17T07:43:29.856Z,13.10
2022-11-17T07:44:31.705Z,13.10
2022-11-17T07:45:33.585Z,13.10
2022-11-17T07:46:35.454Z,13.10
2022-11-17T07:47:37.252Z,13.20
2022-11-17T07:48:40.136Z,13.10
2022-11-17T07:49:42.101Z,13.10
2022-11-17T07:50:43.940Z,13.10
2022-11-17T07:51:45.782Z,13.10
2022-11-17T07:52:51.547Z,13.10
2022-11-17T07:53:53.344Z,13.20
2022-11-17T07:54:55.038Z,13.20
2022-11-17T07:55:57.219Z,13.10
2022-11-17T07:56:59.539Z,13.10
2022-11-17T07:58:02.526Z,13.20
2022-11-17T07:59:04.416Z,13.20
2022-11-17T08:00:06.900Z,13.20
2022-11-17T08:01:15.785Z,13.20
2022-11-17T08:02:18.776Z,13.20
2022-11-17T08:03:20.862Z,13.30
2022-11-17T08:04:52.258Z,13.30
2022-11-17T08:05:55.398Z,13.30
2022-11-17T08:06:57.974Z,13.30
2022-11-17T08:08:00.619Z,13.50
2022-11-17T08:09:02.522Z,13.30
2022-11-17T08:10:08.721Z,13.30
2022-11-17T08:11:12.802Z,13.30
2022-11-17T08:12:14.797Z,13.40
2022-11-17T08:13:16.659Z,13.40
2022-11-17T08:14:18.889Z,13.40
2022-11-17T08:15:22.579Z,13.40
2022-11-17T08:16:27.352Z,13.40
2022-11-17T08:17:34.724Z,13.70
2022-11-17T08:18:39.091Z,13.50
2022-11-17T08:19:41.492Z,13.50
2022-11-17T08:20:43.367Z,13.50
2022-11-17T08:21:45.402Z,13.50
2022-11-17T08:22:51.368Z,13.50
2022-11-17T08:23:55.217Z,13.50
2022-11-17T08:24:57.097Z,13.60
2022-11-17T08:25:59.183Z,13.60
2022-11-17T08:27:01.826Z,13.60
2022-11-17T08:28:03.842Z,13.70
2022-11-17T08:29:05.965Z,13.70
2022-11-17T08:30:10.015Z,13.70
2022-11-17T08:31:11.941Z,13.80
2022-11-17T08:32:13.809Z,13.80
2022-11-17T08:33:15.611Z,13.80
2022-11-17T08:34:17.615Z,13.80
2022-11-17T08:35:22.834Z,13.80
2022-11-17T08:36:24.783Z,13.80
2022-11-17T08:37:27.813Z,13.80
2022-11-17T08:38:30.932Z,13.80
2022-11-17T08:39:33.262Z,13.80
2022-11-17T08:40:35.295Z,13.80
2022-11-17T08:41:38.487Z,13.80
2022-11-17T08:42:41.859Z,13.80
2022-11-17T08:43:43.713Z,13.80
2022-11-17T08:44:45.768Z,14.00
2022-11-17T08:45:47.849Z,13.90
2022-11-17T08:46:49.806Z,13.90
2022-11-17T08:47:51.933Z,13.90
2022-11-17T08:48:57.162Z,13.90
2022-11-17T08:49:59.430Z,13.90
2022-11-17T08:51:07.156Z,13.90
2022-11-17T08:52:09.205Z,13.90
2022-11-17T08:53:19.201Z,13.90
2022-11-17T08:54:21.251Z,13.90
2022-11-17T08:55:28.152Z,13.90
2022-11-17T08:56:31.210Z,13.90
2022-11-17T08:57:34.809Z,13.90
2022-11-17T08:58:44.671Z,13.90
2022-11-17T08:59:46.790Z,14.00
2022-11-17T09:00:48.708Z,13.90
2022-11-17T09:01:50.824Z,14.10
2022-11-17T09:02:52.771Z,14.00
2022-11-17T09:03:55.859Z,14.00
2022-11-17T09:05:18.869Z,14.00
2022-11-17T09:06:21.121Z,13.90
2022-11-17T09:07:23.813Z,14.00
2022-11-17T09:09:51.509Z,14.00
2022-11-17T09:10:55.312Z,13.90
2022-11-17T09:11:57.624Z,14.00
2022-11-17T09:12:59.519Z,14.00
2022-11-17T09:14:01.633Z,14.00
2022-11-17T09:15:05.122Z,14.20
2022-11-17T09:16:09.782Z,14.00
2022-11-17T09:17:11.967Z,14.00
2022-11-17T09:18:15.329Z,14.10
2022-11-17T09:19:17.537Z,14.10
2022-11-17T09:20:19.981Z,14.30
2022-11-17T09:21:26.172Z,14.10
2022-11-17T09:22:31.204Z,14.10
2022-11-17T09:23:33.605Z,14.20
2022-11-17T09:24:37.440Z,14.20
2022-11-17T09:25:40.853Z,14.20
2022-11-17T09:26:43.173Z,14.40
2022-11-17T09:27:44.973Z,14.40
2022-11-17T09:28:47.842Z,14.30
2022-11-17T09:29:50.976Z,14.30
2022-11-17T09:30:53.761Z,14.30
2022-11-17T09:31:55.570Z,14.50
2022-11-17T09:33:00.085Z,14.30
2022-11-17T09:34:07.311Z,14.40
2022-11-17T09:35:10.015Z,14.40
2022-11-17T09:36:14.012Z,14.40
2022-11-17T09:37:15.938Z,14.50
2022-11-17T09:38:17.807Z,14.70
2022-11-17T09:39:19.648Z,14.50
2022-11-17T09:40:23.054Z,14.60
2022-11-17T09:41:28.708Z,14.50
2022-11-17T09:42:31.247Z,14.70
2022-11-17T09:43:41.098Z,14.50
2022-11-17T09:44:52.921Z,14.50
2022-11-17T09:46:07.638Z,14.70
2022-11-17T09:47:38.800Z,14.60
2022-11-17T09:48:52.587Z,14.70
2022-11-17T09:50:19.992Z,14.70
2022-11-17T09:51:25.291Z,14.70
2022-11-17T09:52:46.614Z,14.70
2022-11-17T09:53:59.952Z,14.70
2022-11-17T09:55:22.508Z,14.70
2022-11-17T09:56:28.559Z,14.80
2022-11-17T09:57:45.697Z,14.70
2022-11-17T09:59:12.909Z,14.70
2022-11-17T10:00:17.735Z,14.80
2022-11-17T10:01:22.186Z,14.70
2022-11-17T10:02:24.740Z,14.70
2022-11-17T10:03:40.331Z,14.70
2022-11-17T10:04:45.662Z,14.70
2022-11-17T10:05:49.369Z,14.70
2022-11-17T10:06:52.525Z,14.70
2022-11-17T10:07:58.060Z,14.80
2022-11-17T10:09:22.469Z,14.80
2022-11-17T10:10:51.743Z,14.80
2022-11-17T10:11:59.909Z,14.80
2022-11-17T10:13:05.954Z,14.80
2022-11-17T10:14:16.426Z,14.90
2022-11-17T10:15:27.576Z,15.10
2022-11-17T10:16:30.446Z,14.90
2022-11-17T10:17:34.117Z,14.90
2022-11-17T10:18:38.504Z,14.80
2022-11-17T10:19:41.166Z,14.80
2022-11-17T10:20:44.411Z,14.90
2022-11-17T10:21:58.167Z,14.90
2022-11-17T10:23:04.166Z,14.90
2022-11-17T10:24:06.398Z,15.10
2022-11-17T10:25:41.007Z,14.90
2022-11-17T10:26:49.750Z,15.00
2022-11-17T10:27:54.651Z,15.00
2022-11-17T10:29:09.305Z,15.00
2022-11-17T10:30:22.500Z,15.00
2022-11-17T10:31:24.353Z,15.00
2022-11-17T10:32:30.571Z,15.00
2022-11-17T10:33:48.829Z,15.00
2022-11-17T10:34:50.654Z,15.00
2022-11-17T10:35:58.881Z,15.00
2022-11-17T10:37:25.854Z,15.00
2022-11-17T10:38:33.166Z,14.90
2022-11-17T10:39:43.215Z,14.90
2022-11-17T10:40:51.343Z,15.10
2022-11-17T10:41:53.828Z,15.00
2022-11-17T10:43:14.460Z,15.00
2022-11-17T10:44:25.400Z,15.00
2022-11-17T10:45:28.289Z,15.00
2022-11-17T10:46:40.613Z,15.00
2022-11-17T10:47:47.687Z,15.00
2022-11-17T10:49:01.059Z,15.10
2022-11-17T10:50:22.038Z,15.10
2022-11-17T10:51:29.068Z,15.10
2022-11-17T10:52:32.918Z,15.30
2022-11-17T10:53:42.899Z,15.10
2022-11-17T10:54:50.013Z,15.10
2022-11-17T10:56:19.117Z,15.10
2022-11-17T10:57:27.012Z,15.10
2022-11-17T10:58:32.812Z,15.20
2022-11-17T10:59:56.849Z,15.20
2022-11-17T11:01:03.270Z,15.00
2022-11-17T11:02:31.793Z,15.00
2022-11-17T11:03:35.666Z,15.10
2022-11-17T11:04:43.175Z,15.10
2022-11-17T11:06:23.597Z,15.10
2022-11-17T11:07:25.554Z,15.10
2022-11-17T11:08:46.733Z,15.10
2022-11-17T11:10:02.739Z,15.10
2022-11-17T11:11:12.792Z,15.10
2022-11-17T11:12:24.498Z,15.10
2022-11-17T11:13:55.086Z,15.00
2022-11-17T11:14:59.954Z,15.00
2022-11-17T11:16:02.331Z,15.00
2022-11-17T11:17:17.323Z,15.10
2022-11-17T11:18:21.578Z,15.00
2022-11-17T11:19:24.063Z,15.10
2022-11-17T11:21:26.589Z,15.10
2022-11-17T11:22:35.278Z,15.10
2022-11-17T11:23:45.100Z,15.10
2022-11-17T11:25:24.685Z,15.10
2022-11-17T11:26:51.926Z,15.10
2022-11-17T11:28:21.432Z,15.10
2022-11-17T11:29:35.802Z,15.10
2022-11-17T11:30:47.401Z,15.20
2022-11-17T11:32:21.809Z,15.30
2022-11-17T11:33:23.845Z,15.20
2022-11-17T11:34:44.762Z,15.20
2022-11-17T11:36:31.074Z,15.60
2022-11-17T11:38:00.057Z,15.30
2022-11-17T11:39:29.101Z,15.30
2022-11-17T11:40:42.149Z,15.30
2022-11-17T11:41:46.971Z,15.30
2022-11-17T11:42:59.244Z,15.30
2022-11-17T11:44:35.876Z,15.30
2022-11-17T11:45:57.289Z,15.20
2022-11-17T11:47:11.815Z,15.30
2022-11-17T11:48:33.791Z,15.30
2022-11-17T11:49:43.170Z,15.30
2022-11-17T11:51:21.427Z,15.40
2022-11-17T11:52:30.097Z,15.40
2022-11-17T11:53:47.010Z,15.50
2022-11-17T11:54:58.381Z,15.50
2022-11-17T11:56:22.444Z,15.40
2022-11-17T11:57:32.893Z,15.40
2022-11-17T11:58:38.420Z,15.60
2022-11-17T12:00:03.736Z,15.40
2022-11-17T12:01:09.822Z,15.40
2022-11-17T12:02:11.804Z,15.50
2022-11-17T12:03:19.530Z,15.50
2022-11-17T12:04:27.579Z,15.30
2022-11-17T12:06:27.109Z,15.40
2022-11-17T12:07:45.713Z,15.40
2022-11-17T12:08:55.675Z,15.40
2022-11-17T12:10:20.938Z,15.40
2022-11-17T12:11:43.972Z,15.30
2022-11-17T12:12:47.006Z,15.30
2022-11-17T12:13:54.457Z,15.20
2022-11-17T12:15:33.637Z,15.30
2022-11-17T12:16:37.091Z,15.20
2022-11-17T12:18:00.856Z,15.30
2022-11-17T12:19:23.089Z,15.20
2022-11-17T12:20:41.153Z,15.20
2022-11-17T12:21:44.627Z,15.30
2022-11-17T12:23:03.209Z,15.30
2022-11-17T12:24:11.218Z,15.40
2022-11-17T12:25:21.561Z,15.40
2022-11-17T12:26:37.215Z,15.40
2022-11-17T12:27:39.708Z,15.70
2022-11-17T12:28:41.968Z,15.50
2022-11-17T12:29:47.642Z,15.50
2022-11-17T12:30:52.915Z,15.60
2022-11-17T12:32:02.122Z,15.60
2022-11-17T12:33:09.086Z,15.60
2022-11-17T12:34:37.303Z,15.80
2022-11-17T12:35:39.941Z,15.70
2022-11-17T12:36:43.129Z,15.80
2022-11-17T12:37:45.051Z,15.80
2022-11-17T12:38:48.427Z,15.80
2022-11-17T12:40:03.245Z,16.00
2022-11-17T12:41:08.629Z,15.80
2022-11-17T12:42:10.377Z,15.90
2022-11-17T12:43:15.421Z,16.00
2022-11-17T12:44:38.567Z,15.90
2022-11-17T12:46:03.862Z,15.90
2022-11-17T12:47:21.688Z,15.90
2022-11-17T12:48:33.891Z,16.00
2022-11-17T12:50:03.207Z,16.20
2022-11-17T12:51:15.846Z,16.00
2022-11-17T12:52:39.700Z,16.00
2022-11-17T12:53:49.299Z,16.00
2022-11-17T12:55:05.080Z,16.10
2022-11-17T12:56:45.745Z,16.00
2022-11-17T12:57:56.301Z,16.00
2022-11-17T12:59:28.545Z,16.10
2022-11-17T13:00:39.407Z,16.00
2022-11-17T13:01:51.113Z,16.00
2022-11-17T13:03:16.423Z,16.00
2022-11-17T13:04:27.189Z,16.00
2022-11-17T13:05:30.379Z,16.00
2022-11-17T13:06:36.248Z,16.00
2022-11-17T13:07:38.520Z,16.00
2022-11-17T13:08:41.076Z,16.00
2022-11-17T13:09:43.373Z,16.10
2022-11-17T13:10:46.399Z,16.10
2022-11-17T13:12:00.525Z,16.10
2022-11-17T13:13:12.350Z,16.10
2022-11-17T13:14:18.877Z,16.10
2022-11-17T13:15:24.418Z,16.20
2022-11-17T13:16:26.724Z,16.20
2022-11-17T13:17:43.655Z,16.40
2022-11-17T13:18:50.090Z,16.20
2022-11-17T13:20:05.719Z,16.40
2022-11-17T13:21:36.658Z,16.30
2022-11-17T13:22:42.096Z,16.30
2022-11-17T13:23:49.311Z,16.30
2022-11-17T13:24:52.223Z,16.30
2022-11-17T13:26:21.628Z,16.40
2022-11-17T13:27:31.892Z,16.40
2022-11-17T13:28:33.804Z,16.40
2022-11-17T13:29:35.781Z,16.40
2022-11-17T13:30:39.681Z,16.50
2022-11-17T13:31:41.894Z,16.50
2022-11-17T13:32:45.472Z,16.70
2022-11-17T13:34:05.055Z,16.70
2022-11-17T13:35:21.890Z,16.50
2022-11-17T13:36:27.159Z,16.60
2022-11-17T13:37:31.082Z,16.60
2022-11-17T13:38:33.106Z,16.70
2022-11-17T13:39:35.040Z,16.70
2022-11-17T13:40:37.657Z,16.70
2022-11-17T13:41:42.725Z,16.70
2022-11-17T13:42:44.715Z,16.70
2022-11-17T13:43:53.189Z,16.70
2022-11-17T13:44:59.874Z,16.80
2022-11-17T13:46:04.339Z,16.80
2022-11-17T13:47:27.992Z,16.60
2022-11-17T13:48:36.962Z,16.60
2022-11-17T13:49:39.722Z,16.60
2022-11-17T13:50:46.270Z,16.60
2022-11-17T13:51:48.264Z,16.70
2022-11-17T13:53:13.151Z,16.70
2022-11-17T13:54:18.705Z,16.70
2022-11-17T13:55:22.118Z,16.70
2022-11-17T13:56:40.940Z,16.90
2022-11-17T13:57:58.306Z,16.70
2022-11-17T13:59:06.284Z,16.80
2022-11-17T14:00:17.079Z,16.80
2022-11-17T14:01:39.068Z,16.80
2022-11-17T14:02:56.656Z,16.80
2022-11-17T14:04:25.190Z,16.80
2022-11-17T14:05:29.917Z,16.80
2022-11-17T14:07:01.837Z,16.80
2022-11-17T14:08:22.818Z,16.70
2022-11-17T14:09:29.114Z,16.70
2022-11-17T14:10:34.449Z,16.60
2022-11-17T14:11:41.656Z,16.60
2022-11-17T14:12:43.603Z,16.50
2022-11-17T14:13:48.232Z,16.70
2022-11-17T14:14:50.078Z,16.60
2022-11-17T14:15:57.959Z,16.30
2022-11-17T14:17:29.199Z,16.30
2022-11-17T14:18:39.073Z,16.20
2022-11-17T14:19:41.160Z,16.40
2022-11-17T14:20:43.433Z,16.20
2022-11-17T14:22:23.488Z,16.10
2022-11-17T14:23:28.381Z,16.20
2022-11-17T14:24:32.686Z,16.20
2022-11-17T14:25:45.795Z,16.20
2022-11-17T14:26:49.056Z,16.20
2022-11-17T14:27:53.344Z,16.20
2022-11-17T14:28:58.323Z,16.20
2022-11-17T14:30:02.645Z,16.40
2022-11-17T14:31:04.718Z,16.20
2022-11-17T14:32:07.130Z,16.20
2022-11-17T14:33:13.915Z,16.30
2022-11-17T14:34:17.708Z,16.30
2022-11-17T14:35:19.676Z,16.30
2022-11-17T14:36:25.309Z,16.30
2022-11-17T14:37:32.045Z,16.30
2022-11-17T14:38:34.100Z,16.30
2022-11-17T14:39:36.191Z,16.40
2022-11-17T14:40:38.963Z,16.30
2022-11-17T14:41:41.891Z,16.20
2022-11-17T14:42:44.532Z,16.20
2022-11-17T14:43:48.362Z,16.20
2022-11-17T14:44:50.241Z,16.20